Time;durP1;ratioP1;P1;durP2;ratioP2;P2;SDS_P1;SDS_P2;PMS_P1;PMS_P2;Temp;Humidity;BMP_temperature;BMP_pressure;BME280_temperature;BME280_humidity;BME280_pressure;Samples;Min_cycle;Max_cycle;Signal;HPM_P1;HPM_P2
2022/06/15 00:01:04;;;;;;;5.03;3.63;;;;;;;17.58;90.79;100218.94;5005072;28;20212;-74
2022/06/15 00:03:31;;;;;;;4.63;4.03;;;;;;;17.54;91.86;100219.13;5008812;28;20199;-74
2022/06/15 00:06:11;;;;;;;4.60;4.00;;;;;;;17.53;92.33;100218.25;5004190;28;20573;-75
2022/06/15 00:08:38;;;;;;;5.80;4.13;;;;;;;17.49;92.66;100216.66;5003487;28;20184;-75
2022/06/15 00:11:10;;;;;;;4.47;4.07;;;;;;;17.44;92.55;100219.47;5025714;28;20581;-75
2022/06/15 00:13:35;;;;;;;4.77;4.27;;;;;;;17.41;93.10;100213.50;5008711;28;20668;-75
2022/06/15 00:16:02;;;;;;;4.20;3.90;;;;;;;17.36;93.49;100216.28;5009354;28;20243;-75
2022/06/15 00:18:28;;;;;;;4.43;4.10;;;;;;;17.31;94.41;100213.88;5003688;28;20195;-75
2022/06/15 00:20:55;;;;;;;5.60;3.97;;;;;;;17.26;95.29;100214.91;5007004;28;20191;-75
2022/06/15 00:23:20;;;;;;;5.73;4.67;;;;;;;17.18;95.66;100208.25;5005010;28;20192;-74
2022/06/15 00:25:50;;;;;;;5.90;4.40;;;;;;;17.12;95.98;100211.06;5004305;28;20199;-75
2022/06/15 00:28:16;;;;;;;5.50;4.23;;;;;;;17.06;96.73;100209.53;5022066;28;20192;-75
2022/06/15 00:30:41;;;;;;;5.90;4.83;;;;;;;17.02;97.38;100223.63;5007682;28;20217;-74
2022/06/15 00:33:07;;;;;;;4.37;3.97;;;;;;;16.96;97.69;100225.63;5007464;28;20213;-75
2022/06/15 00:35:32;;;;;;;4.53;4.07;;;;;;;16.91;98.50;100218.78;5006755;28;20208;-75
2022/06/15 00:37:57;;;;;;;5.33;4.30;;;;;;;16.87;99.10;100219.78;5004181;28;20237;-75
2022/06/15 00:40:23;;;;;;;7.57;4.57;;;;;;;16.80;99.86;100220.06;5007836;28;20276;-75
2022/06/15 00:42:48;;;;;;;5.73;5.07;;;;;;;16.74;99.99;100221.16;5004056;28;20284;-75
2022/06/15 00:45:13;;;;;;;5.43;4.50;;;;;;;16.64;99.88;100225.84;5019580;28;20190;-75
2022/06/15 00:47:43;;;;;;;5.60;5.10;;;;;;;16.55;99.57;100229.63;5021552;28;20198;-75
2022/06/15 00:50:16;;;;;;;5.73;4.53;;;;;;;16.45;99.58;100225.63;5004663;28;20210;-75
2022/06/15 00:53:05;;;;;;;4.33;3.93;;;;;;;16.40;100.00;100220.59;5026133;28;20789;-75
2022/06/15 00:55:33;;;;;;;4.73;4.33;;;;;;;16.35;100.00;100226.84;4999660;28;20211;-75
2022/06/15 00:58:03;;;;;;;5.37;4.87;;;;;;;16.29;100.00;100222.69;4998692;28;21893;-75
2022/06/15 01:00:29;;;;;;;4.87;4.47;;;;;;;16.24;100.00;100208.94;4997372;28;20197;-75
2022/06/15 01:02:55;;;;;;;12.07;4.90;;;;;;;16.22;100.00;100216.81;5000678;28;20258;-75
2022/06/15 01:05:26;;;;;;;11.83;4.83;;;;;;;16.22;100.00;100214.19;5018333;28;20228;-75
2022/06/15 01:08:13;;;;;;;12.77;5.50;;;;;;;16.23;100.00;100223.75;5019270;28;20253;-75
2022/06/15 01:11:21;;;;;;;11.87;4.90;;;;;;;16.24;100.00;100217.63;5021944;28;20643;-74
2022/06/15 01:14:22;;;;;;;6.60;4.87;;;;;;;16.21;100.00;100220.31;4976525;28;20202;-75
2022/06/15 01:16:57;;;;;;;5.43;4.33;;;;;;;16.17;100.00;100218.75;5003746;28;20184;-75
2022/06/15 01:19:42;;;;;;;6.77;4.37;;;;;;;16.11;100.00;100221.53;5004351;28;20194;-75
2022/06/15 01:22:20;;;;;;;4.60;4.17;;;;;;;16.05;100.00;100219.13;4982075;28;20284;-75
2022/06/15 01:25:11;;;;;;;6.60;4.47;;;;;;;16.02;100.00;100214.03;5015302;28;20227;-75
2022/06/15 01:28:05;;;;;;;5.57;4.73;;;;;;;15.98;100.00;100216.72;5003125;28;20911;-75
2022/06/15 01:31:20;;;;;;;4.90;4.40;;;;;;;15.94;100.00;100209.06;5005543;28;20224;-75
2022/06/15 01:34:03;;;;;;;7.67;4.60;;;;;;;15.87;100.00;100211.03;4999203;28;20203;-75
2022/06/15 01:36:58;;;;;;;5.03;4.53;;;;;;;15.80;100.00;100210.31;5008659;28;20305;-75
2022/06/15 01:39:50;;;;;;;6.27;5.10;;;;;;;15.78;100.00;100198.22;5004842;28;20192;-75
2022/06/15 01:42:31;;;;;;;7.33;4.67;;;;;;;15.73;100.00;100202.75;5001890;28;20213;-74
2022/06/15 01:45:00;;;;;;;10.77;5.27;;;;;;;15.70;100.00;100208.91;5009813;28;20273;-75
2022/06/15 01:47:30;;;;;;;8.70;5.13;;;;;;;15.65;100.00;100200.38;5004172;28;20196;-77
2022/06/15 01:50:09;;;;;;;8.50;4.87;;;;;;;15.62;100.00;100210.91;5002412;28;20551;-75
2022/06/15 01:52:41;;;;;;;6.57;4.97;;;;;;;15.57;100.00;100198.00;5005847;28;20286;-75
2022/06/15 01:55:15;;;;;;;11.30;5.10;;;;;;;15.55;100.00;100202.41;5004418;28;20339;-75
2022/06/15 01:57:43;;;;;;;11.27;5.20;;;;;;;15.50;100.00;100202.53;5004238;28;20190;-75
2022/06/15 02:00:13;;;;;;;13.70;5.90;;;;;;;15.43;100.00;100195.81;5018081;28;20202;-75
2022/06/15 02:03:06;;;;;;;13.37;5.77;;;;;;;15.36;100.00;100191.66;5002623;28;20212;-75
2022/06/15 02:05:53;;;;;;;10.80;6.40;;;;;;;15.31;100.00;100197.03;5005506;28;20778;-75
2022/06/15 02:08:35;;;;;;;11.93;5.73;;;;;;;15.28;100.00;100199.72;5002954;28;20218;-75
2022/06/15 02:11:05;;;;;;;9.77;5.43;;;;;;;15.22;100.00;100197.31;5002331;28;20194;-75
2022/06/15 02:13:50;;;;;;;9.70;5.40;;;;;;;15.17;100.00;100194.84;5001629;28;20182;-74
2022/06/15 02:16:24;;;;;;;10.77;5.50;;;;;;;15.13;100.00;100201.06;5018304;28;20241;-75
2022/06/15 02:18:51;;;;;;;9.43;5.83;;;;;;;15.11;100.00;100197.63;5005435;28;20192;-75
2022/06/15 02:21:20;;;;;;;5.97;5.13;;;;;;;15.09;100.00;100202.91;5004456;28;20266;-75
2022/06/15 02:23:49;;;;;;;9.27;6.23;;;;;;;15.06;100.00;100191.69;5000248;28;20195;-75
2022/06/15 02:26:15;;;;;;;9.33;6.40;;;;;;;15.00;100.00;100186.66;5020308;28;20190;-77
2022/06/15 02:28:55;;;;;;;7.23;5.43;;;;;;;14.94;100.00;100193.75;5016597;28;20218;-74
2022/06/15 02:31:20;;;;;;;7.83;5.40;;;;;;;14.89;100.00;100185.25;5009054;28;20201;-76
2022/06/15 02:33:53;;;;;;;9.63;5.97;;;;;;;14.81;100.00;100181.97;5001682;28;20696;-75
2022/06/15 02:36:19;;;;;;;7.70;5.37;;;;;;;14.76;100.00;100183.84;5014321;28;20211;-75
2022/06/15 02:38:47;;;;;;;6.07;5.40;;;;;;;14.70;100.00;100190.09;5005324;28;20669;-76
2022/06/15 02:41:13;;;;;;;5.97;5.30;;;;;;;14.64;100.00;100182.44;5007205;28;20213;-75
2022/06/15 02:43:41;;;;;;;6.57;5.67;;;;;;;14.59;100.00;100181.69;5007666;28;21001;-76
2022/06/15 02:46:10;;;;;;;6.43;5.50;;;;;;;14.54;100.00;100189.63;5021781;28;20191;-75
2022/06/15 02:48:39;;;;;;;6.20;5.50;;;;;;;14.49;100.00;100183.69;5025001;28;20263;-75
2022/06/15 02:51:17;;;;;;;8.63;5.17;;;;;;;14.46;100.00;100189.84;5008227;28;20194;-75
2022/06/15 02:53:44;;;;;;;6.03;5.40;;;;;;;14.44;100.00;100193.38;5004022;28;20190;-75
2022/06/15 02:56:12;;;;;;;8.17;5.60;;;;;;;14.37;100.00;100195.28;5005639;28;20220;-75
2022/06/15 02:58:42;;;;;;;5.50;5.00;;;;;;;14.32;100.00;100187.59;5019848;28;20188;-75
2022/06/15 03:01:08;;;;;;;5.70;5.20;;;;;;;14.27;100.00;100193.81;5004080;28;20285;-75
2022/06/15 03:03:34;;;;;;;6.83;5.33;;;;;;;14.23;100.00;100195.66;5007648;28;20888;-75
2022/06/15 03:06:00;;;;;;;6.30;5.80;;;;;;;14.20;100.00;100198.31;5027182;28;20211;-76
2022/06/15 03:08:25;;;;;;;5.87;5.30;;;;;;;14.14;100.00;100201.94;4998671;28;20220;-75
2022/06/15 03:10:52;;;;;;;8.80;5.70;;;;;;;14.10;100.00;100194.25;5003524;28;20213;-76
2022/06/15 03:13:19;;;;;;;5.97;5.37;;;;;;;14.07;100.00;100195.16;5018192;28;20787;-75
2022/06/15 03:15:44;;;;;;;5.93;5.43;;;;;;;14.06;100.00;100198.69;4998688;28;20839;-75
2022/06/15 03:18:10;;;;;;;6.40;5.80;;;;;;;14.06;100.00;100203.88;5003254;28;20192;-75
2022/06/15 03:20:35;;;;;;;6.40;5.80;;;;;;;14.07;100.00;100202.13;5007234;28;20192;-75
2022/06/15 03:23:01;;;;;;;5.90;5.40;;;;;;;14.09;100.00;100210.75;5019741;28;20223;-75
2022/06/15 03:25:27;;;;;;;6.07;5.47;;;;;;;14.11;100.00;100212.41;5005324;28;20191;-76
2022/06/15 03:27:53;;;;;;;6.43;5.90;;;;;;;14.12;100.00;100218.50;5001674;28;20940;-76
2022/06/15 03:30:20;;;;;;;6.27;5.67;;;;;;;14.13;100.00;100228.00;5008104;28;20188;-76
2022/06/15 03:32:45;;;;;;;5.70;5.20;;;;;;;14.15;100.00;100227.06;5004752;28;20215;-76
2022/06/15 03:35:11;;;;;;;6.13;5.60;;;;;;;14.19;100.00;100238.25;5005229;28;20208;-75
2022/06/15 03:37:40;;;;;;;5.80;5.30;;;;;;;14.18;100.00;100228.72;5002869;28;20187;-74
2022/06/15 03:40:08;;;;;;;6.13;5.37;;;;;;;14.14;100.00;100234.94;5003433;28;20196;-75
2022/06/15 03:42:34;;;;;;;4.73;4.33;;;;;;;14.12;100.00;100231.50;5002306;28;20209;-75
2022/06/15 03:45:00;;;;;;;5.67;5.17;;;;;;;14.17;100.00;100238.31;5010159;28;20192;-75
2022/06/15 03:47:25;;;;;;;5.50;5.00;;;;;;;14.27;100.00;100241.53;5010746;28;20857;-75
2022/06/15 03:49:52;;;;;;;5.13;4.63;;;;;;;14.39;100.00;100247.31;5012183;28;20188;-75
2022/06/15 03:52:20;;;;;;;4.97;4.57;;;;;;;14.56;100.00;100245.13;5024359;28;20338;-75
2022/06/15 03:54:46;;;;;;;5.63;4.43;;;;;;;15.04;100.00;100240.41;5007247;28;20207;-75
2022/06/15 03:57:13;;;;;;;15.30;5.57;;;;;;;15.84;100.00;100242.38;5004962;28;20198;-75
2022/06/15 03:59:40;;;;;;;4.73;4.20;;;;;;;16.67;100.00;100236.19;5006945;28;20656;-74
2022/06/15 04:02:06;;;;;;;6.73;4.40;;;;;;;17.48;97.96;100239.38;5000749;28;20303;-75
2022/06/15 04:04:32;;;;;;;4.30;3.93;;;;;;;17.88;95.68;100231.72;5005292;28;20337;-75
2022/06/15 04:06:59;;;;;;;4.57;3.93;;;;;;;17.80;95.79;100239.00;5006452;28;20662;-76
2022/06/15 04:09:25;;;;;;;4.07;3.73;;;;;;;17.47;96.45;100244.66;5004873;28;20225;-77
2022/06/15 04:12:08;;;;;;;5.03;4.63;;;;;;;17.12;96.98;100252.91;5006340;28;20212;-77
2022/06/15 04:14:34;;;;;;;4.43;4.03;;;;;;;16.79;98.25;100250.56;5000956;28;20287;-76
2022/06/15 04:17:00;;;;;;;5.50;4.53;;;;;;;16.64;98.52;100248.53;5019319;28;20194;-75
2022/06/15 04:19:28;;;;;;;5.10;4.60;;;;;;;16.63;98.59;100247.66;5005606;28;20188;-76
2022/06/15 04:21:54;;;;;;;5.23;4.77;;;;;;;17.36;96.55;100255.53;5010686;28;20683;-75
2022/06/15 04:24:21;;;;;;;4.57;4.17;;;;;;;17.75;94.51;100247.03;5005703;28;20193;-75
2022/06/15 04:26:47;;;;;;;4.17;3.87;;;;;;;17.64;94.12;100257.94;5022744;28;20239;-75
2022/06/15 04:29:14;;;;;;;3.90;3.60;;;;;;;17.49;94.46;100256.78;5002914;28;20555;-75
2022/06/15 04:31:39;;;;;;;4.97;4.50;;;;;;;17.32;94.96;100244.31;5009972;28;20605;-76
2022/06/15 04:34:09;;;;;;;4.67;4.27;;;;;;;17.19;95.07;100253.53;5005410;28;20234;-75
2022/06/15 04:36:36;;;;;;;5.03;4.53;;;;;;;17.10;95.57;100249.50;5006261;28;20299;-75
2022/06/15 04:39:02;;;;;;;6.00;4.13;;;;;;;17.50;94.75;100249.75;5004444;28;20258;-75
2022/06/15 04:41:28;;;;;;;4.80;4.30;;;;;;;18.71;91.95;100256.22;5016245;28;20231;-75
2022/06/15 04:43:53;;;;;;;4.80;4.30;;;;;;;20.37;86.98;100248.56;5023864;28;20199;-76
2022/06/15 04:46:19;;;;;;;4.10;3.80;;;;;;;21.95;83.06;100249.84;5010527;28;20207;-76
2022/06/15 04:48:44;;;;;;;3.83;3.53;;;;;;;23.35;79.88;100247.75;5011322;28;20196;-77
2022/06/15 04:51:15;;;;;;;3.57;3.30;;;;;;;24.59;77.01;100246.75;5007292;28;20215;-77
2022/06/15 04:53:41;;;;;;;3.60;3.30;;;;;;;25.54;75.13;100248.97;5020097;28;20230;-76
2022/06/15 04:56:07;;;;;;;3.83;3.40;;;;;;;26.35;73.04;100243.06;5004959;28;20220;-76
2022/06/15 04:58:32;;;;;;;4.03;3.63;;;;;;;27.01;71.42;100256.53;5003209;28;20194;-76
2022/06/15 05:00:59;;;;;;;3.30;3.00;;;;;;;27.63;69.87;100250.81;5006050;28;20199;-76
2022/06/15 05:03:24;;;;;;;3.40;3.20;;;;;;;28.14;68.99;100244.81;5017680;28;20350;-75
2022/06/15 05:05:57;;;;;;;3.97;3.63;;;;;;;28.71;67.60;100247.13;5021712;28;20932;-74
2022/06/15 05:08:22;;;;;;;3.40;3.10;;;;;;;29.23;66.93;100253.38;5023564;28;20651;-74
2022/06/15 05:10:48;;;;;;;3.73;3.30;;;;;;;29.68;65.85;100244.94;5004604;28;20195;-77
2022/06/15 05:13:13;;;;;;;3.30;2.83;;;;;;;30.14;64.70;100255.88;5016142;28;20592;-74
2022/06/15 05:15:38;;;;;;;2.87;2.67;;;;;;;30.55;64.08;100253.03;5005724;28;20219;-77
2022/06/15 05:18:08;;;;;;;3.97;2.90;;;;;;;30.91;62.87;100247.84;5019179;28;20200;-78
2022/06/15 05:20:38;;;;;;;3.33;2.97;;;;;;;31.28;62.08;100252.31;5003609;28;20196;-76
2022/06/15 05:23:04;;;;;;;3.20;3.00;;;;;;;31.58;61.31;100260.97;5006012;28;20208;-77
2022/06/15 05:25:29;;;;;;;3.33;3.03;;;;;;;31.84;60.55;100254.06;5004897;28;20187;-76
2022/06/15 05:27:56;;;;;;;3.70;3.40;;;;;;;32.12;60.12;100249.47;5004682;28;20188;-75
2022/06/15 05:30:21;;;;;;;4.07;3.63;;;;;;;32.42;59.80;100246.50;5002667;28;20604;-76
2022/06/15 05:32:46;;;;;;;3.47;3.17;;;;;;;32.74;58.94;100253.03;5000900;28;20242;-75
2022/06/15 05:35:12;;;;;;;4.47;3.20;;;;;;;32.89;57.45;100251.47;4997965;28;20303;-75
2022/06/15 05:37:38;;;;;;;8.43;3.93;;;;;;;33.01;56.54;100245.81;5005086;28;20252;-75
2022/06/15 05:40:05;;;;;;;4.70;3.88;;;;;;;33.03;56.06;100251.88;5005875;28;20188;-76
2022/06/15 05:42:31;;;;;;;4.37;3.33;;;;;;;33.11;56.21;100243.88;5005238;28;20214;-74
2022/06/15 05:44:56;;;;;;;5.20;3.28;;;;;;;33.41;56.42;100241.63;5001323;28;20189;-73
2022/06/15 05:47:22;;;;;;;3.58;3.10;;;;;;;33.65;55.94;100243.50;5001226;28;20220;-74
2022/06/15 05:49:47;;;;;;;3.58;3.28;;;;;;;33.96;55.48;100237.50;5002188;28;20293;-73
2022/06/15 05:52:13;;;;;;;5.55;3.25;;;;;;;34.23;54.83;100240.84;5005043;28;20827;-74
2022/06/15 05:54:38;;;;;;;4.30;2.90;;;;;;;34.56;54.61;100240.81;4991661;28;20303;-73
2022/06/15 05:57:12;;;;;;;3.42;3.13;;;;;;;34.88;54.01;100238.16;5007006;28;20208;-74
2022/06/15 05:59:38;;;;;;;3.70;3.00;;;;;;;35.08;53.69;100243.97;5001907;28;20181;-74
2022/06/15 06:02:03;;;;;;;3.47;3.17;;;;;;;35.29;52.89;100248.72;5021154;28;20290;-73
2022/06/15 06:04:29;;;;;;;2.88;2.67;;;;;;;35.50;52.39;100250.81;5003550;28;20647;-75
2022/06/15 06:06:54;;;;;;;3.20;2.85;;;;;;;35.67;51.67;100256.09;4997420;28;20177;-74
2022/06/15 06:09:19;;;;;;;4.22;3.10;;;;;;;35.81;51.78;100260.69;5014781;28;20187;-74
2022/06/15 06:11:45;;;;;;;2.97;2.67;;;;;;;35.89;51.26;100257.09;5024871;28;20879;-73
2022/06/15 06:14:10;;;;;;;3.03;2.80;;;;;;;35.90;51.14;100253.38;5004478;28;20851;-74
2022/06/15 06:16:36;;;;;;;3.67;3.38;;;;;;;35.91;51.07;100260.44;5025122;28;20187;-74
2022/06/15 06:19:01;;;;;;;3.83;2.95;;;;;;;35.80;50.96;100256.31;5028617;28;20242;-74
2022/06/15 06:21:27;;;;;;;3.47;3.17;;;;;;;35.95;50.83;100245.63;5000788;28;20231;-75
2022/06/15 06:23:52;;;;;;;3.75;2.95;;;;;;;35.86;50.80;100260.13;4998265;28;20234;-74
2022/06/15 06:26:21;;;;;;;3.65;3.28;;;;;;;35.42;50.76;100253.53;5004758;28;20279;-74
2022/06/15 06:28:46;;;;;;;3.90;3.50;;;;;;;35.47;50.92;100269.19;5008681;28;20221;-74
2022/06/15 06:31:12;;;;;;;3.42;3.10;;;;;;;35.65;50.92;100260.81;5018008;28;21616;-74
2022/06/15 06:33:37;;;;;;;3.80;3.50;;;;;;;35.37;50.55;100262.16;5004104;28;20188;-74
2022/06/15 06:36:13;;;;;;;3.42;3.20;;;;;;;35.15;50.62;100262.94;5007021;28;20246;-75
2022/06/15 06:38:38;;;;;;;4.40;3.15;;;;;;;35.15;50.74;100263.78;5006774;28;20190;-75
2022/06/15 06:41:04;;;;;;;3.22;2.92;;;;;;;35.39;50.62;100272.72;5000334;28;20262;-75
2022/06/15 06:43:30;;;;;;;3.97;3.38;;;;;;;35.45;50.49;100272.06;5004933;28;20188;-75
2022/06/15 06:45:56;;;;;;;4.10;3.70;;;;;;;35.59;50.55;100267.75;5013718;28;20246;-76
2022/06/15 06:48:21;;;;;;;4.38;3.70;;;;;;;35.46;50.55;100273.75;5007483;28;20526;-75
2022/06/15 06:50:47;;;;;;;4.10;3.50;;;;;;;35.38;50.81;100273.75;5003865;28;20234;-75
2022/06/15 06:53:14;;;;;;;3.70;3.33;;;;;;;35.66;50.68;100275.94;5021626;28;20218;-74
2022/06/15 06:55:39;;;;;;;3.60;3.20;;;;;;;35.88;50.59;100276.13;4999685;28;20573;-75
2022/06/15 06:58:05;;;;;;;5.32;3.47;;;;;;;35.96;50.44;100279.63;5003455;28;20193;-75
2022/06/15 07:00:33;;;;;;;5.03;3.80;;;;;;;35.83;50.16;100280.19;5016194;28;20191;-75
2022/06/15 07:03:01;;;;;;;4.80;3.55;;;;;;;35.57;50.30;100279.72;5005420;28;20280;-76
2022/06/15 07:05:26;;;;;;;4.45;3.30;;;;;;;35.19;50.89;100278.53;5001648;28;20184;-76
2022/06/15 07:07:52;;;;;;;3.72;3.40;;;;;;;35.09;50.88;100275.25;5010388;28;20188;-75
2022/06/15 07:10:18;;;;;;;4.00;3.60;;;;;;;35.23;50.75;100279.06;4999665;28;20261;-74
2022/06/15 07:12:43;;;;;;;5.32;3.17;;;;;;;35.41;50.84;100284.16;5004611;28;20220;-75
2022/06/15 07:15:14;;;;;;;3.78;3.38;;;;;;;35.49;51.16;100286.00;5007009;28;20200;-76
2022/06/15 07:17:40;;;;;;;3.50;3.20;;;;;;;35.62;50.96;100288.09;5000846;28;20194;-75
2022/06/15 07:20:07;;;;;;;3.38;3.08;;;;;;;35.62;50.80;100278.16;5000227;28;20230;-76
2022/06/15 07:22:33;;;;;;;3.60;3.30;;;;;;;35.50;50.91;100293.03;5014624;28;20214;-74
2022/06/15 07:24:59;;;;;;;3.72;3.33;;;;;;;35.47;50.99;100288.00;5012895;28;20287;-75
2022/06/15 07:27:24;;;;;;;3.72;3.00;;;;;;;35.49;50.91;100283.28;5009785;28;20272;-73
2022/06/15 07:29:50;;;;;;;3.47;3.20;;;;;;;35.45;51.11;100288.22;5004367;28;20226;-74
2022/06/15 07:32:17;;;;;;;3.22;2.92;;;;;;;35.38;51.27;100276.44;5000918;28;20236;-75
2022/06/15 07:34:43;;;;;;;3.47;3.17;;;;;;;35.28;51.28;100286.59;5012705;28;20203;-73
2022/06/15 07:37:10;;;;;;;4.00;3.00;;;;;;;35.28;51.66;100287.41;5010392;28;21134;-74
2022/06/15 07:39:36;;;;;;;3.80;3.35;;;;;;;35.23;51.52;100285.25;5006117;28;20238;-74
2022/06/15 07:42:05;;;;;;;3.67;3.38;;;;;;;35.20;52.05;100282.09;5010162;28;20200;-75
2022/06/15 07:44:31;;;;;;;3.50;3.20;;;;;;;35.12;51.89;100280.28;5009101;28;20208;-75
2022/06/15 07:49:54;;;;;;;3.25;2.95;;;;;;;34.78;52.37;100287.59;5019280;28;20192;-76
2022/06/15 07:52:21;;;;;;;3.80;3.10;;;;;;;34.58;51.93;100297.88;5009176;28;20205;-75
2022/06/15 07:54:46;;;;;;;4.30;3.22;;;;;;;34.44;51.84;100290.50;5004786;28;20199;-74
2022/06/15 07:57:12;;;;;;;4.05;3.65;;;;;;;34.28;51.81;100299.41;5016057;28;20180;-74
2022/06/15 07:59:37;;;;;;;3.35;3.05;;;;;;;34.16;52.19;100297.09;5007412;28;20276;-73
2022/06/15 08:02:03;;;;;;;3.05;2.85;;;;;;;33.95;52.61;100294.91;5017648;28;20196;-75
2022/06/15 08:04:28;;;;;;;3.45;3.20;;;;;;;33.75;53.12;100291.63;5008685;28;20295;-74
2022/06/15 08:06:54;;;;;;;3.92;3.40;;;;;;;33.58;53.36;100294.28;5006105;28;20181;-75
2022/06/15 08:09:20;;;;;;;4.90;3.38;;;;;;;33.26;53.24;100287.81;5005374;28;20193;-74
2022/06/15 08:14:33;;;;;;;3.88;3.47;;;;;;;32.66;54.10;100289.53;5011093;28;20203;-75
2022/06/15 08:17:00;;;;;;;4.05;3.45;;;;;;;32.52;54.74;100290.13;5016889;28;20211;-75
2022/06/15 08:19:26;;;;;;;3.75;3.45;;;;;;;32.32;54.91;100284.09;5007599;28;20196;-75
2022/06/15 08:21:52;;;;;;;4.20;3.50;;;;;;;32.12;55.19;100286.09;5004082;28;20239;-75
2022/06/15 08:24:20;;;;;;;4.93;3.40;;;;;;;31.94;55.58;100278.91;5013630;28;20703;-75
2022/06/15 08:26:45;;;;;;;4.80;3.93;;;;;;;31.76;55.31;100290.47;5003804;28;21011;-75
2022/06/15 08:29:13;;;;;;;5.83;3.90;;;;;;;31.41;55.13;100285.88;5021708;28;20188;-74
2022/06/15 08:31:38;;;;;;;3.47;3.17;;;;;;;31.15;55.40;100281.22;5020255;28;20208;-75
2022/06/15 08:34:05;;;;;;;3.77;3.43;;;;;;;30.95;55.65;100285.81;5017672;28;20254;-75
2022/06/15 08:36:31;;;;;;;3.37;3.07;;;;;;;30.79;56.44;100284.59;5008110;28;20203;-75
2022/06/15 08:38:57;;;;;;;3.80;3.40;;;;;;;30.66;56.62;100282.22;5007213;28;20193;-75
2022/06/15 08:41:47;;;;;;;4.13;3.43;;;;;;;30.56;57.25;100286.75;5005799;28;20204;-76
2022/06/15 08:44:24;;;;;;;5.43;3.90;;;;;;;30.29;57.25;100282.13;5039609;28;20175;-75
2022/06/15 08:47:10;;;;;;;4.07;3.67;;;;;;;30.08;57.52;100283.97;5024782;28;20810;-76
2022/06/15 08:49:54;;;;;;;3.70;3.40;;;;;;;29.89;57.76;100276.78;5010758;28;20200;-75
2022/06/15 08:52:26;;;;;;;3.27;2.97;;;;;;;29.68;57.99;100281.41;5000187;28;20683;-75
2022/06/15 08:55:00;;;;;;;4.00;3.67;;;;;;;29.49;58.77;100288.41;5006112;28;20195;-75
2022/06/15 08:57:40;;;;;;;3.87;3.57;;;;;;;29.31;59.12;100283.69;5007299;28;20184;-75
2022/06/15 09:00:15;;;;;;;3.57;3.27;;;;;;;29.13;59.29;100278.16;4999164;28;20762;-76
2022/06/15 09:02:54;;;;;;;3.60;3.30;;;;;;;28.94;59.46;100278.94;4998738;28;20218;-75
2022/06/15 09:05:42;;;;;;;4.00;3.70;;;;;;;28.81;59.41;100279.16;5001754;28;20184;-75
2022/06/15 09:08:45;;;;;;;3.70;3.40;;;;;;;28.73;60.32;100281.63;5006989;28;20200;-75
2022/06/15 09:11:35;;;;;;;3.60;3.30;;;;;;;28.68;60.10;100275.81;5019951;28;20706;-75
2022/06/15 09:14:38;;;;;;;3.63;3.20;;;;;;;28.68;60.29;100273.16;5007379;28;20188;-75
2022/06/15 09:17:19;;;;;;;3.60;3.30;;;;;;;28.71;60.14;100279.06;5013841;28;20298;-74
2022/06/15 09:19:58;;;;;;;3.87;3.57;;;;;;;28.71;60.95;100276.41;5005284;28;20192;-75
2022/06/15 09:22:33;;;;;;;4.20;3.80;;;;;;;28.73;61.34;100273.63;5015598;28;20204;-75
2022/06/15 09:25:07;;;;;;;4.03;3.63;;;;;;;28.71;61.29;100275.56;5018923;28;20209;-76
2022/06/15 09:27:41;;;;;;;4.17;3.70;;;;;;;28.72;61.13;100266.59;4994471;28;20185;-76
2022/06/15 09:30:09;;;;;;;4.53;4.00;;;;;;;28.78;61.93;100275.91;5011643;28;20761;-75
2022/06/15 09:32:45;;;;;;;4.67;4.17;;;;;;;28.81;60.01;100270.31;5001048;28;20212;-75
2022/06/15 09:35:16;;;;;;;3.87;3.57;;;;;;;28.79;61.04;100264.28;5020415;28;20196;-75
2022/06/15 09:37:44;;;;;;;4.63;3.40;;;;;;;28.80;61.10;100265.97;5013638;28;20652;-75
2022/06/15 09:40:11;;;;;;;3.57;3.27;;;;;;;28.80;60.92;100272.16;5003499;28;20340;-75
2022/06/15 09:43:01;;;;;;;4.83;3.30;;;;;;;28.81;61.35;100273.84;5002899;28;20224;-75
2022/06/15 09:45:45;;;;;;;5.90;4.43;;;;;;;28.74;61.16;100268.16;5000652;28;20196;-76
2022/06/15 09:48:19;;;;;;;6.07;3.70;;;;;;;28.84;62.63;100268.22;5009416;28;20208;-75
2022/06/15 09:51:03;;;;;;;4.33;3.90;;;;;;;28.83;61.91;100271.84;5025793;28;20211;-75
2022/06/15 09:53:56;;;;;;;4.17;3.50;;;;;;;28.85;62.05;100258.44;5001696;28;20227;-75
2022/06/15 09:56:23;;;;;;;4.73;3.90;;;;;;;28.88;61.20;100264.31;5002206;28;20215;-75
2022/06/15 09:59:06;;;;;;;4.03;3.70;;;;;;;28.92;61.95;100266.72;5002038;28;20656;-75
2022/06/15 10:01:39;;;;;;;4.70;3.87;;;;;;;28.95;62.24;100264.63;4998688;28;20227;-75
2022/06/15 10:04:09;;;;;;;3.80;3.50;;;;;;;28.96;61.99;100261.00;5004603;28;20222;-75
2022/06/15 10:06:51;;;;;;;3.80;3.50;;;;;;;29.00;61.50;100262.41;5022647;28;20180;-75
2022/06/15 10:09:20;;;;;;;3.80;3.50;;;;;;;29.04;61.91;100268.31;5012579;28;20319;-75
2022/06/15 10:15:15;;;;;;;4.67;4.07;;;;;;;28.98;61.44;100260.84;5008308;28;20285;-75
2022/06/15 10:17:46;;;;;;;4.57;4.07;;;;;;;29.04;61.42;100262.97;5010801;28;20254;-75
2022/06/15 10:20:30;;;;;;;4.13;3.80;;;;;;;29.03;61.70;100266.63;5006221;28;20275;-75
2022/06/15 10:22:58;;;;;;;4.30;3.90;;;;;;;29.00;61.84;100259.75;5002094;28;20212;-75
2022/06/15 10:25:24;;;;;;;4.23;3.80;;;;;;;29.03;61.84;100261.28;5004767;28;20271;-76
2022/06/15 10:28:03;;;;;;;4.00;3.70;;;;;;;29.08;62.09;100255.56;5009149;28;20211;-75
2022/06/15 10:30:29;;;;;;;4.47;4.10;;;;;;;29.09;62.00;100247.44;4998237;28;20187;-75
2022/06/15 10:32:57;;;;;;;4.40;4.00;;;;;;;29.05;62.27;100243.34;5013006;28;20208;-75
2022/06/15 10:35:23;;;;;;;3.97;3.53;;;;;;;29.06;62.69;100245.06;4993958;28;20209;-75
2022/06/15 10:37:59;;;;;;;4.60;4.20;;;;;;;29.11;62.71;100247.31;5001746;28;20231;-74
2022/06/15 10:40:33;;;;;;;4.53;4.13;;;;;;;29.10;62.30;100240.28;4997191;28;20219;-75
2022/06/15 10:43:16;;;;;;;4.47;4.07;;;;;;;29.07;61.86;100243.22;5005933;28;20210;-75
2022/06/15 10:46:01;;;;;;;4.57;4.13;;;;;;;28.97;61.94;100228.06;5001622;28;20647;-73
2022/06/15 10:48:30;;;;;;;3.60;3.30;;;;;;;29.03;62.56;100229.31;5014727;28;20199;-74
2022/06/15 10:51:12;;;;;;;4.40;4.00;;;;;;;29.12;62.02;100225.00;5006175;28;20219;-74
2022/06/15 10:53:43;;;;;;;4.10;3.70;;;;;;;29.15;61.58;100224.75;5004178;28;20247;-74
2022/06/15 11:02:32;;;;;;;3.90;3.60;;;;;;;29.22;61.01;100225.03;5019608;28;20296;-75
2022/06/15 11:05:08;;;;;;;4.33;3.87;;;;;;;29.24;61.16;100220.41;5009151;28;20211;-75
2022/06/15 11:07:42;;;;;;;4.10;3.70;;;;;;;29.31;60.89;100214.41;5019354;28;20187;-76
2022/06/15 11:10:13;;;;;;;4.87;3.50;;;;;;;29.35;60.64;100213.16;5018694;28;20198;-76
2022/06/15 11:13:07;;;;;;;3.60;3.30;;;;;;;29.38;57.62;100209.41;5010201;28;20218;-75
2022/06/15 11:18:31;;;;;;;3.47;3.10;;;;;;;29.32;57.75;100208.09;5009568;28;20195;-76
2022/06/15 11:21:20;;;;;;;6.00;3.60;;;;;;;29.35;56.78;100215.81;5010485;28;20267;-76
2022/06/15 11:23:49;;;;;;;6.60;3.77;;;;;;;29.38;57.77;100208.53;5012170;28;20203;-76
2022/06/15 11:29:39;;;;;;;3.80;3.50;;;;;;;29.44;58.87;100210.66;5001593;28;20239;-75
2022/06/15 11:32:14;;;;;;;3.50;3.27;;;;;;;29.52;59.33;100210.78;5004507;28;20212;-75
2022/06/15 11:34:49;;;;;;;4.13;3.73;;;;;;;29.54;58.63;100210.69;5011973;28;20171;-76
2022/06/15 11:37:22;;;;;;;3.73;3.40;;;;;;;29.55;58.08;100207.84;5006571;28;20204;-76
2022/06/15 11:40:01;;;;;;;3.20;3.00;;;;;;;29.58;57.35;100204.06;5009424;28;20223;-76
2022/06/15 11:42:28;;;;;;;3.50;3.20;;;;;;;29.60;54.88;100215.44;5008296;28;20286;-75
2022/06/15 11:44:53;;;;;;;3.40;3.10;;;;;;;29.44;54.12;100205.34;5009332;28;20257;-76
2022/06/15 11:47:41;;;;;;;3.43;3.13;;;;;;;29.35;54.62;100202.50;5007997;28;20192;-75
2022/06/15 11:50:16;;;;;;;3.73;2.80;;;;;;;29.42;55.11;100202.78;5003033;28;20583;-74
2022/06/15 11:53:12;;;;;;;2.93;2.50;;;;;;;29.57;55.16;100207.75;5026870;28;20207;-75
2022/06/15 11:55:52;;;;;;;3.13;2.83;;;;;;;29.68;55.33;100198.72;5010315;28;20258;-75
2022/06/15 11:58:53;;;;;;;2.60;2.40;;;;;;;29.71;54.26;100195.78;5022199;28;20172;-75
2022/06/15 12:01:43;;;;;;;3.17;2.40;;;;;;;29.79;52.09;100196.78;5013956;28;20263;-75